createdAt,value
2023-05-05T00:02:05.748Z,13.22
2023-05-05T00:05:10.057Z,13.25
2023-05-05T00:08:14.620Z,13.15
2023-05-05T00:11:18.736Z,13.11
2023-05-05T00:14:22.442Z,13.08
2023-05-05T00:17:26.910Z,12.99
2023-05-05T00:20:31.535Z,12.95
2023-05-05T00:23:35.961Z,13.01
2023-05-05T00:26:40.102Z,12.90
2023-05-05T00:29:44.106Z,12.87
2023-05-05T00:32:49.215Z,12.83
2023-05-05T00:35:53.396Z,12.75
2023-05-05T00:38:57.725Z,12.64
2023-05-05T00:42:04.502Z,12.59
2023-05-05T00:45:10.086Z,12.61
2023-05-05T00:48:14.503Z,12.54
2023-05-05T00:51:20.249Z,12.57
2023-05-05T00:54:24.269Z,12.52
2023-05-05T00:57:29.003Z,12.49
2023-05-05T01:00:33.344Z,12.49
2023-05-05T01:03:38.916Z,12.44
2023-05-05T01:07:03.909Z,12.38
2023-05-05T01:10:20.300Z,12.29
2023-05-05T01:13:41.438Z,12.23
2023-05-05T01:16:59.994Z,12.16
2023-05-05T01:20:52.446Z,12.08
2023-05-05T01:24:21.178Z,12.01
2023-05-05T01:28:05.163Z,11.96
2023-05-05T01:31:38.027Z,11.94
2023-05-05T01:34:49.413Z,11.94
2023-05-05T01:38:01.825Z,11.89
2023-05-05T01:41:13.503Z,11.82
2023-05-05T01:44:20.039Z,11.80
2023-05-05T01:47:24.871Z,11.76
2023-05-05T01:50:29.436Z,11.74
2023-05-05T01:53:35.467Z,11.75
2023-05-05T01:56:42.017Z,11.72
2023-05-05T01:59:46.489Z,11.75
2023-05-05T02:02:51.743Z,11.71
2023-05-05T02:05:58.152Z,11.64
2023-05-05T02:09:03.538Z,11.57
2023-05-05T02:12:08.880Z,11.52
2023-05-05T02:15:14.173Z,11.46
2023-05-05T02:18:18.787Z,11.43
2023-05-05T02:21:23.117Z,11.41
2023-05-05T02:24:27.405Z,11.41
2023-05-05T02:27:34.843Z,11.33
2023-05-05T02:30:39.714Z,11.33
2023-05-05T02:33:45.682Z,11.30
2023-05-05T02:36:52.592Z,11.31
2023-05-05T02:40:06.230Z,11.30
2023-05-05T02:43:13.769Z,11.24
2023-05-05T02:46:18.172Z,11.20
2023-05-05T02:49:22.234Z,11.22
2023-05-05T02:52:26.096Z,11.24
2023-05-05T02:55:39.091Z,11.28
2023-05-05T02:58:54.554Z,11.31
2023-05-05T03:02:24.489Z,11.24
2023-05-05T03:05:37.495Z,11.24
2023-05-05T03:09:15.735Z,11.26
2023-05-05T03:12:22.433Z,11.28
2023-05-05T03:15:34.149Z,11.24
2023-05-05T03:18:40.341Z,11.24
2023-05-05T03:21:44.661Z,11.15
2023-05-05T03:24:51.798Z,11.19
2023-05-05T03:27:56.081Z,11.14
2023-05-05T03:31:00.482Z,11.15
2023-05-05T03:34:04.420Z,11.13
2023-05-05T03:37:08.585Z,11.15
2023-05-05T03:40:13.258Z,11.10
2023-05-05T03:43:17.356Z,11.16
2023-05-05T03:46:21.595Z,11.12
2023-05-05T03:49:25.796Z,11.14
2023-05-05T03:52:30.210Z,11.13
2023-05-05T03:55:34.364Z,11.06
2023-05-05T03:58:38.361Z,11.07
2023-05-05T04:01:42.191Z,11.05
2023-05-05T04:04:46.441Z,11.05
2023-05-05T04:07:50.797Z,11.12
2023-05-05T04:10:55.181Z,11.00
2023-05-05T04:13:59.274Z,10.97
2023-05-05T04:17:04.028Z,11.00
2023-05-05T04:20:09.291Z,10.98
2023-05-05T04:23:14.112Z,10.95
2023-05-05T04:26:18.391Z,10.90
2023-05-05T04:29:22.598Z,10.92
2023-05-05T04:32:27.122Z,10.94
2023-05-05T04:35:31.377Z,10.87
2023-05-05T04:38:35.696Z,10.81
2023-05-05T04:41:39.588Z,10.93
2023-05-05T04:44:43.691Z,10.87
2023-05-05T04:47:47.832Z,10.90
2023-05-05T04:50:52.007Z,10.93
2023-05-05T04:53:56.386Z,10.91
2023-05-05T04:57:00.426Z,11.02
2023-05-05T05:00:05.421Z,11.01
2023-05-05T05:03:10.646Z,11.07
2023-05-05T05:06:14.842Z,11.15
2023-05-05T05:09:19.423Z,11.37
2023-05-05T05:12:23.585Z,11.40
2023-05-05T05:15:27.701Z,11.30
2023-05-05T05:18:31.896Z,11.33
2023-05-05T05:21:36.261Z,11.48
2023-05-05T05:24:40.392Z,11.60
2023-05-05T05:27:44.768Z,11.65
2023-05-05T05:30:52.035Z,11.77
2023-05-05T05:33:56.409Z,11.89
2023-05-05T05:37:01.215Z,11.97
2023-05-05T05:40:06.537Z,12.15
2023-05-05T05:43:10.560Z,12.19
2023-05-05T05:46:15.186Z,12.23
2023-05-05T05:49:19.470Z,12.36
2023-05-05T05:52:23.693Z,12.45
2023-05-05T05:55:27.893Z,12.53
2023-05-05T05:58:31.969Z,12.62
2023-05-05T06:01:36.782Z,12.70
2023-05-05T06:04:40.971Z,12.92
2023-05-05T06:07:45.305Z,13.03
2023-05-05T06:10:49.565Z,13.10
2023-05-05T06:13:53.559Z,13.36
2023-05-05T06:16:57.714Z,13.48
2023-05-05T06:20:02.126Z,13.59
2023-05-05T06:23:06.660Z,13.74
2023-05-05T06:26:10.775Z,13.87
2023-05-05T06:29:14.978Z,13.89
2023-05-05T06:32:20.353Z,14.08
2023-05-05T06:35:24.756Z,14.25
2023-05-05T06:38:28.609Z,14.36
2023-05-05T06:41:32.810Z,14.49
2023-05-05T06:44:37.105Z,14.59
2023-05-05T06:47:42.408Z,14.94
2023-05-05T06:50:46.577Z,15.18
2023-05-05T06:53:51.240Z,15.61
2023-05-05T06:56:55.052Z,16.13
2023-05-05T06:59:59.843Z,16.14
2023-05-05T07:03:03.849Z,16.23
2023-05-05T07:06:07.851Z,16.34
2023-05-05T07:09:12.611Z,16.49
2023-05-05T07:12:16.990Z,16.53
2023-05-05T07:15:28.678Z,16.71
2023-05-05T07:18:33.520Z,16.76
2023-05-05T07:21:39.634Z,16.70
2023-05-05T07:24:43.776Z,16.77
2023-05-05T07:27:47.959Z,17.05
2023-05-05T07:30:52.097Z,17.25
2023-05-05T07:33:55.766Z,17.62
2023-05-05T07:37:00.193Z,18.13
2023-05-05T07:40:04.905Z,19.05
2023-05-05T07:43:09.127Z,19.77
2023-05-05T07:46:13.816Z,20.11
2023-05-05T07:49:18.221Z,19.93
2023-05-05T07:52:33.145Z,20.27
2023-05-05T07:55:46.387Z,21.16
2023-05-05T07:58:50.406Z,22.37
2023-05-05T08:01:55.101Z,23.61
2023-05-05T08:04:59.123Z,24.38
2023-05-05T08:08:03.710Z,23.65
2023-05-05T08:11:07.952Z,23.62
2023-05-05T08:14:12.001Z,24.32
2023-05-05T08:17:18.938Z,23.43
2023-05-05T08:20:28.202Z,23.63
2023-05-05T08:23:33.628Z,25.06
2023-05-05T08:26:37.921Z,25.20
2023-05-05T08:29:42.102Z,24.75
2023-05-05T08:32:46.945Z,24.42
2023-05-05T08:35:51.111Z,24.80
2023-05-05T08:38:55.399Z,24.70
2023-05-05T08:41:59.706Z,24.99
2023-05-05T08:45:04.319Z,25.23
2023-05-05T08:48:08.750Z,25.06
2023-05-05T08:51:20.079Z,24.01
2023-05-05T08:54:27.683Z,23.54
2023-05-05T08:57:40.994Z,23.15
2023-05-05T09:00:46.012Z,23.16
2023-05-05T09:03:50.614Z,23.66
2023-05-05T09:06:58.316Z,23.46
2023-05-05T09:10:05.022Z,23.46
2023-05-05T09:13:09.600Z,23.90
2023-05-05T09:16:13.939Z,23.87
2023-05-05T09:19:17.986Z,23.97
2023-05-05T09:22:33.371Z,23.71
2023-05-05T09:25:37.886Z,23.37
2023-05-05T09:28:51.750Z,23.98
2023-05-05T09:32:08.408Z,23.91
2023-05-05T09:35:13.964Z,23.37
2023-05-05T09:38:19.437Z,22.94
2023-05-05T09:41:37.813Z,22.96
2023-05-05T09:44:42.272Z,22.92
2023-05-05T09:47:47.565Z,22.77
2023-05-05T09:50:52.457Z,22.68
2023-05-05T09:53:57.241Z,22.65
2023-05-05T09:57:01.429Z,22.56
2023-05-05T10:00:06.692Z,22.66
2023-05-05T10:03:10.750Z,22.70
2023-05-05T10:06:14.811Z,22.62
2023-05-05T10:09:18.880Z,22.55
2023-05-05T10:12:25.242Z,22.61
2023-05-05T10:15:29.031Z,22.47
2023-05-05T10:18:36.744Z,22.78
2023-05-05T10:21:46.447Z,22.94
2023-05-05T10:24:58.054Z,22.65
2023-05-05T10:28:06.405Z,22.79
2023-05-05T10:31:26.582Z,22.74
2023-05-05T10:34:38.398Z,22.42
2023-05-05T10:37:44.649Z,22.48
2023-05-05T10:40:49.701Z,22.75
2023-05-05T10:43:58.748Z,22.73
2023-05-05T10:47:03.288Z,22.58
2023-05-05T10:50:31.418Z,22.69
2023-05-05T10:53:44.461Z,22.71
2023-05-05T10:56:49.333Z,23.17
2023-05-05T10:59:53.193Z,23.22
2023-05-05T11:03:16.126Z,23.25
2023-05-05T11:06:20.426Z,23.24
2023-05-05T11:09:28.687Z,23.36
2023-05-05T11:12:53.320Z,23.19
2023-05-05T11:15:59.115Z,22.98
2023-05-05T11:19:41.472Z,23.08
2023-05-05T11:23:04.031Z,23.00
2023-05-05T11:26:08.917Z,22.83
2023-05-05T11:29:12.875Z,22.69
2023-05-05T11:32:17.054Z,22.85
2023-05-05T11:35:21.907Z,22.82
2023-05-05T11:38:51.179Z,22.73
2023-05-05T11:42:10.393Z,22.57
2023-05-05T11:45:23.306Z,22.40
2023-05-05T11:48:27.472Z,22.42
2023-05-05T11:51:32.098Z,22.52
2023-05-05T11:54:42.106Z,22.64
2023-05-05T11:57:45.932Z,22.48
2023-05-05T12:00:50.124Z,22.57
2023-05-05T12:03:54.605Z,22.69
2023-05-05T12:07:01.563Z,22.79
2023-05-05T12:10:07.258Z,22.99
2023-05-05T12:13:19.285Z,23.07
2023-05-05T12:16:23.650Z,23.19
2023-05-05T12:19:30.346Z,23.36
2023-05-05T12:22:34.248Z,23.48
2023-05-05T12:25:39.677Z,23.78
2023-05-05T12:28:47.967Z,24.12
2023-05-05T12:31:51.994Z,23.71
2023-05-05T12:34:59.349Z,23.71
2023-05-05T12:38:04.013Z,23.63
2023-05-05T12:41:08.087Z,23.30
2023-05-05T12:44:12.474Z,23.28
2023-05-05T12:47:32.895Z,23.39
2023-05-05T12:50:37.188Z,23.66
2023-05-05T12:53:41.117Z,23.60
2023-05-05T12:56:48.106Z,23.83
2023-05-05T12:59:53.389Z,23.99
2023-05-05T13:02:58.139Z,23.96
2023-05-05T13:06:18.190Z,23.86
2023-05-05T13:09:26.975Z,23.85
2023-05-05T13:12:31.126Z,23.60
2023-05-05T13:15:35.262Z,23.65
2023-05-05T13:18:49.630Z,23.96
2023-05-05T13:21:54.691Z,24.05
2023-05-05T13:24:58.728Z,23.96
2023-05-05T13:28:02.985Z,23.60
2023-05-05T13:31:07.839Z,23.56
2023-05-05T13:34:12.570Z,23.46
2023-05-05T13:37:16.388Z,23.57
2023-05-05T13:40:21.003Z,23.53
2023-05-05T13:43:25.246Z,23.60
2023-05-05T13:46:29.618Z,23.55
2023-05-05T13:49:35.373Z,23.50
2023-05-05T13:52:39.943Z,23.33
2023-05-05T13:55:44.678Z,23.41
2023-05-05T13:58:48.469Z,23.26
2023-05-05T14:01:52.773Z,23.38
2023-05-05T14:04:56.991Z,23.37
2023-05-05T14:08:01.305Z,23.28
2023-05-05T14:11:05.390Z,23.23
2023-05-05T14:14:09.552Z,23.24
2023-05-05T14:17:13.985Z,23.35
2023-05-05T14:20:18.264Z,23.35
2023-05-05T14:23:22.265Z,23.34
2023-05-05T14:26:26.338Z,23.49
2023-05-05T14:29:30.706Z,23.31
2023-05-05T14:32:34.742Z,23.36
2023-05-05T14:35:38.892Z,23.34
2023-05-05T14:38:42.938Z,23.23
2023-05-05T14:41:47.072Z,23.17
2023-05-05T14:44:51.071Z,23.20
2023-05-05T14:47:55.704Z,23.18
2023-05-05T14:50:59.824Z,23.27
2023-05-05T14:54:07.449Z,23.15
2023-05-05T14:57:15.942Z,23.18
2023-05-05T15:00:19.929Z,23.09
2023-05-05T15:03:24.595Z,22.85
2023-05-05T15:06:29.110Z,22.80
2023-05-05T15:09:33.345Z,22.77
2023-05-05T15:12:37.617Z,22.76
2023-05-05T15:15:41.613Z,22.55
2023-05-05T15:18:45.975Z,22.57
2023-05-05T15:21:53.214Z,22.37
2023-05-05T15:24:57.404Z,22.47
2023-05-05T15:28:02.007Z,22.39
2023-05-05T15:31:06.294Z,22.51
2023-05-05T15:34:09.973Z,22.45
2023-05-05T15:37:14.082Z,22.39
2023-05-05T15:40:18.413Z,22.42
2023-05-05T15:43:22.673Z,22.38
2023-05-05T15:46:26.885Z,22.38
2023-05-05T15:49:31.156Z,22.36
2023-05-05T15:52:35.590Z,22.31
2023-05-05T15:55:40.229Z,22.26
2023-05-05T15:58:44.374Z,22.38
2023-05-05T16:01:48.858Z,22.29
2023-05-05T16:04:53.550Z,22.30
2023-05-05T16:07:57.792Z,22.20
2023-05-05T16:11:02.035Z,22.27
2023-05-05T16:14:06.339Z,22.15
2023-05-05T16:17:10.244Z,22.08
2023-05-05T16:20:14.433Z,22.00
2023-05-05T16:23:18.461Z,22.05
2023-05-05T16:26:22.374Z,21.96
2023-05-05T16:29:26.651Z,21.93
2023-05-05T16:32:30.762Z,21.87
2023-05-05T16:35:36.170Z,21.84
2023-05-05T16:38:41.070Z,21.71
2023-05-05T16:41:45.152Z,21.74
2023-05-05T16:44:49.026Z,21.66
2023-05-05T16:47:55.409Z,21.69
2023-05-05T16:50:59.395Z,21.68
2023-05-05T16:54:03.926Z,21.67
2023-05-05T16:57:08.262Z,21.63
2023-05-05T17:00:12.708Z,21.52
2023-05-05T17:03:17.753Z,21.50
2023-05-05T17:06:21.649Z,21.45
2023-05-05T17:09:27.228Z,21.48
2023-05-05T17:12:31.358Z,21.34
2023-05-05T17:15:36.156Z,21.23
2023-05-05T17:18:40.090Z,21.27
2023-05-05T17:21:44.145Z,21.31
2023-05-05T17:24:48.018Z,21.21
2023-05-05T17:27:52.775Z,21.08
2023-05-05T17:30:59.476Z,21.11
2023-05-05T17:34:03.410Z,21.04
2023-05-05T17:37:07.891Z,20.96
2023-05-05T17:40:12.085Z,20.94
2023-05-05T17:43:16.460Z,20.83
2023-05-05T17:46:20.980Z,20.85
2023-05-05T17:49:25.482Z,20.86
2023-05-05T17:52:29.488Z,20.86
2023-05-05T17:55:33.748Z,20.83
2023-05-05T17:58:38.372Z,20.68
2023-05-05T18:01:42.727Z,20.66
2023-05-05T18:04:47.417Z,20.60
2023-05-05T18:07:51.761Z,20.55
2023-05-05T18:10:56.047Z,20.48
2023-05-05T18:14:00.333Z,20.45
2023-05-05T18:17:04.693Z,20.37
2023-05-05T18:20:10.211Z,20.40
2023-05-05T18:23:14.596Z,20.48
2023-05-05T18:26:18.580Z,20.34
2023-05-05T18:29:22.870Z,20.14
2023-05-05T18:32:27.572Z,19.99
2023-05-05T18:35:31.748Z,19.82
2023-05-05T18:38:35.733Z,19.65
2023-05-05T18:41:39.852Z,19.48
2023-05-05T18:44:44.373Z,19.35
2023-05-05T18:47:48.638Z,19.29
2023-05-05T18:50:52.880Z,19.25
2023-05-05T18:53:57.025Z,19.14
2023-05-05T18:57:01.297Z,19.20
2023-05-05T19:00:05.797Z,19.09
2023-05-05T19:03:10.159Z,18.91
2023-05-05T19:06:14.746Z,18.94
2023-05-05T19:09:19.071Z,18.97
2023-05-05T19:12:23.152Z,18.93
2023-05-05T19:15:27.936Z,18.88
2023-05-05T19:18:32.550Z,18.87
2023-05-05T19:21:36.667Z,18.86
2023-05-05T19:24:40.727Z,18.82
2023-05-05T19:27:44.654Z,18.80
2023-05-05T19:30:48.899Z,18.86
2023-05-05T19:33:57.465Z,18.79
2023-05-05T19:37:01.450Z,18.70
2023-05-05T19:40:06.304Z,18.64
2023-05-05T19:43:10.544Z,18.70
2023-05-05T19:46:14.606Z,18.67
2023-05-05T19:49:18.930Z,18.62
2023-05-05T19:52:23.227Z,18.45
2023-05-05T19:55:27.417Z,18.39
2023-05-05T19:58:54.083Z,18.36
2023-05-05T20:01:58.049Z,18.13
2023-05-05T20:05:02.164Z,18.04
2023-05-05T20:08:06.179Z,18.00
2023-05-05T20:11:10.406Z,17.95
2023-05-05T20:14:14.738Z,17.92
2023-05-05T20:17:20.506Z,17.82
2023-05-05T20:20:25.404Z,17.74
2023-05-05T20:23:29.491Z,17.61
2023-05-05T20:26:33.620Z,17.53
2023-05-05T20:29:37.913Z,17.40
2023-05-05T20:32:42.070Z,17.39
2023-05-05T20:35:47.187Z,17.35
2023-05-05T20:38:51.930Z,17.32
2023-05-05T20:41:56.126Z,17.23
2023-05-05T20:45:01.170Z,17.20
2023-05-05T20:48:07.410Z,17.07
2023-05-05T20:51:11.984Z,17.07
2023-05-05T20:54:16.197Z,17.02
2023-05-05T20:57:20.087Z,16.99
2023-05-05T21:00:25.466Z,17.06
2023-05-05T21:03:29.869Z,16.99
2023-05-05T21:06:34.292Z,16.91
2023-05-05T21:09:38.440Z,17.01
2023-05-05T21:12:42.494Z,16.90
2023-05-05T21:15:46.761Z,16.90
2023-05-05T21:18:50.783Z,16.88
2023-05-05T21:21:58.850Z,16.83
2023-05-05T21:25:15.332Z,16.85
2023-05-05T21:28:19.378Z,16.69
2023-05-05T21:31:23.731Z,16.59
2023-05-05T21:34:28.035Z,16.53
2023-05-05T21:37:32.228Z,16.52
2023-05-05T21:40:36.225Z,16.46
2023-05-05T21:43:40.283Z,16.42
2023-05-05T21:46:44.418Z,16.44
2023-05-05T21:49:48.808Z,16.45
2023-05-05T21:52:52.968Z,16.50
2023-05-05T21:55:57.412Z,16.48
2023-05-05T21:59:01.250Z,16.49
2023-05-05T22:02:05.511Z,16.52
2023-05-05T22:05:10.488Z,16.51
2023-05-05T22:08:14.516Z,16.53
2023-05-05T22:11:19.145Z,16.52
2023-05-05T22:14:23.228Z,16.52
2023-05-05T22:17:27.694Z,16.48
2023-05-05T22:20:32.257Z,16.48
2023-05-05T22:23:37.158Z,16.46
2023-05-05T22:26:43.171Z,16.44
2023-05-05T22:29:47.471Z,16.42
2023-05-05T22:32:51.401Z,16.33
2023-05-05T22:35:55.587Z,16.43
2023-05-05T22:38:59.812Z,16.35
2023-05-05T22:42:04.268Z,16.28
2023-05-05T22:45:09.601Z,16.27
2023-05-05T22:48:13.862Z,16.23
2023-05-05T22:51:17.847Z,16.17
2023-05-05T22:54:21.986Z,16.14
2023-05-05T22:57:26.150Z,16.03
2023-05-05T23:00:30.122Z,15.89
2023-05-05T23:03:34.155Z,15.88
2023-05-05T23:06:40.112Z,15.78
2023-05-05T23:09:44.128Z,15.78
2023-05-05T23:12:48.293Z,15.73
2023-05-05T23:15:52.345Z,15.69
2023-05-05T23:18:56.315Z,15.50
2023-05-05T23:22:00.895Z,15.40
2023-05-05T23:25:05.288Z,15.35
2023-05-05T23:28:09.910Z,15.32
2023-05-05T23:31:13.777Z,15.30
2023-05-05T23:34:17.981Z,15.35
2023-05-05T23:37:23.011Z,15.27
2023-05-05T23:40:26.892Z,15.20
2023-05-05T23:43:31.562Z,15.22
2023-05-05T23:46:35.726Z,15.20
2023-05-05T23:49:39.949Z,15.16
2023-05-05T23:52:44.303Z,15.18
2023-05-05T23:55:48.407Z,15.16
2023-05-05T23:58:53.099Z,15.09
